sensor_id;sensor_type;location;lat;lon;timestamp;pressure;altitude;pressure_sealevel;temperature
15079;BMP180;6932;51.438;5.470;2023-10-08T00:01:15;101939.00;;;22.80
15079;BMP180;6932;51.438;5.470;2023-10-08T00:03:45;101932.00;;;22.80
15079;BMP180;6932;51.438;5.470;2023-10-08T00:06:23;101934.00;;;22.80
15079;BMP180;6932;51.438;5.470;2023-10-08T00:08:50;101939.00;;;22.80
15079;BMP180;6932;51.438;5.470;2023-10-08T00:11:19;101948.00;;;22.80
15079;BMP180;6932;51.438;5.470;2023-10-08T00:13:48;101958.00;;;22.80
15079;BMP180;6932;51.438;5.470;2023-10-08T00:16:14;101957.00;;;22.80
15079;BMP180;6932;51.438;5.470;2023-10-08T00:18:43;101951.00;;;22.80
15079;BMP180;6932;51.438;5.470;2023-10-08T00:21:18;101955.00;;;22.70
15079;BMP180;6932;51.438;5.470;2023-10-08T00:23:46;101949.00;;;22.70
15079;BMP180;6932;51.438;5.470;2023-10-08T00:26:21;101958.00;;;22.70
15079;BMP180;6932;51.438;5.470;2023-10-08T00:29:03;101957.00;;;22.60
15079;BMP180;6932;51.438;5.470;2023-10-08T00:31:33;101963.00;;;22.70
15079;BMP180;6932;51.438;5.470;2023-10-08T00:34:07;101962.00;;;22.60
15079;BMP180;6932;51.438;5.470;2023-10-08T00:36:38;101952.00;;;22.60
15079;BMP180;6932;51.438;5.470;2023-10-08T00:39:05;101964.00;;;22.60
15079;BMP180;6932;51.438;5.470;2023-10-08T00:41:36;101966.00;;;22.50
15079;BMP180;6932;51.438;5.470;2023-10-08T00:44:08;101973.00;;;22.50
15079;BMP180;6932;51.438;5.470;2023-10-08T00:46:34;101967.00;;;22.40
15079;BMP180;6932;51.438;5.470;2023-10-08T00:49:04;101953.00;;;22.40
15079;BMP180;6932;51.438;5.470;2023-10-08T00:51:59;101962.00;;;22.30
15079;BMP180;6932;51.438;5.470;2023-10-08T00:54:31;101969.00;;;22.30
15079;BMP180;6932;51.438;5.470;2023-10-08T00:56:59;101958.00;;;22.30
15079;BMP180;6932;51.438;5.470;2023-10-08T00:59:31;101977.00;;;22.20
15079;BMP180;6932;51.438;5.470;2023-10-08T01:02:02;101983.00;;;22.20
15079;BMP180;6932;51.438;5.470;2023-10-08T01:04:32;101972.00;;;22.20
15079;BMP180;6932;51.438;5.470;2023-10-08T01:07:04;101970.00;;;22.20
15079;BMP180;6932;51.438;5.470;2023-10-08T01:09:40;101974.00;;;22.10
15079;BMP180;6932;51.438;5.470;2023-10-08T01:12:15;101976.00;;;22.10
15079;BMP180;6932;51.438;5.470;2023-10-08T01:14:47;101960.00;;;22.10
15079;BMP180;6932;51.438;5.470;2023-10-08T01:17:15;101964.00;;;22.10
15079;BMP180;6932;51.438;5.470;2023-10-08T01:19:51;101945.00;;;22.00
15079;BMP180;6932;51.438;5.470;2023-10-08T01:22:22;101946.00;;;22.00
15079;BMP180;6932;51.438;5.470;2023-10-08T01:24:49;101938.00;;;22.00
15079;BMP180;6932;51.438;5.470;2023-10-08T01:27:18;101962.00;;;21.90
15079;BMP180;6932;51.438;5.470;2023-10-08T01:29:51;101956.00;;;21.90
15079;BMP180;6932;51.438;5.470;2023-10-08T01:32:19;101954.00;;;21.90
15079;BMP180;6932;51.438;5.470;2023-10-08T01:34:46;101947.00;;;21.80
15079;BMP180;6932;51.438;5.470;2023-10-08T01:37:18;101940.00;;;21.80
15079;BMP180;6932;51.438;5.470;2023-10-08T01:39:48;101927.00;;;21.80
15079;BMP180;6932;51.438;5.470;2023-10-08T01:42:16;101934.00;;;21.80
15079;BMP180;6932;51.438;5.470;2023-10-08T01:44:48;101934.00;;;21.70
15079;BMP180;6932;51.438;5.470;2023-10-08T01:47:15;101934.00;;;21.70
15079;BMP180;6932;51.438;5.470;2023-10-08T01:49:43;101930.00;;;21.70
15079;BMP180;6932;51.438;5.470;2023-10-08T01:52:13;101926.00;;;21.70
15079;BMP180;6932;51.438;5.470;2023-10-08T01:54:50;101932.00;;;21.70
15079;BMP180;6932;51.438;5.470;2023-10-08T01:57:19;101939.00;;;21.70
15079;BMP180;6932;51.438;5.470;2023-10-08T01:59:45;101947.00;;;21.60
15079;BMP180;6932;51.438;5.470;2023-10-08T02:02:11;101942.00;;;21.60
15079;BMP180;6932;51.438;5.470;2023-10-08T02:04:41;101937.00;;;21.60
15079;BMP180;6932;51.438;5.470;2023-10-08T02:07:07;101958.00;;;21.60
15079;BMP180;6932;51.438;5.470;2023-10-08T02:09:34;101963.00;;;21.60
15079;BMP180;6932;51.438;5.470;2023-10-08T02:12:00;101968.00;;;21.60
15079;BMP180;6932;51.438;5.470;2023-10-08T02:14:26;101968.00;;;21.60
15079;BMP180;6932;51.438;5.470;2023-10-08T02:16:56;101962.00;;;21.60
15079;BMP180;6932;51.438;5.470;2023-10-08T02:19:22;101976.00;;;21.60
15079;BMP180;6932;51.438;5.470;2023-10-08T02:21:55;101956.00;;;21.60
15079;BMP180;6932;51.438;5.470;2023-10-08T02:24:22;101958.00;;;21.60
15079;BMP180;6932;51.438;5.470;2023-10-08T02:26:52;101955.00;;;21.60
15079;BMP180;6932;51.438;5.470;2023-10-08T02:29:19;101961.00;;;21.60
15079;BMP180;6932;51.438;5.470;2023-10-08T02:31:44;101958.00;;;21.60
15079;BMP180;6932;51.438;5.470;2023-10-08T02:34:10;101955.00;;;21.60
15079;BMP180;6932;51.438;5.470;2023-10-08T02:36:39;101965.00;;;21.50
15079;BMP180;6932;51.438;5.470;2023-10-08T02:39:09;101957.00;;;21.50
15079;BMP180;6932;51.438;5.470;2023-10-08T02:41:49;101954.00;;;21.50
15079;BMP180;6932;51.438;5.470;2023-10-08T02:44:16;101968.00;;;21.50
15079;BMP180;6932;51.438;5.470;2023-10-08T02:46:49;101964.00;;;21.50
15079;BMP180;6932;51.438;5.470;2023-10-08T02:49:18;101957.00;;;21.50
15079;BMP180;6932;51.438;5.470;2023-10-08T02:51:57;101964.00;;;21.40
15079;BMP180;6932;51.438;5.470;2023-10-08T02:54:23;101976.00;;;21.40
15079;BMP180;6932;51.438;5.470;2023-10-08T02:56:57;101974.00;;;21.40
15079;BMP180;6932;51.438;5.470;2023-10-08T02:59:32;101982.00;;;21.40
15079;BMP180;6932;51.438;5.470;2023-10-08T03:02:09;101977.00;;;21.40
15079;BMP180;6932;51.438;5.470;2023-10-08T03:04:45;101975.00;;;21.40
15079;BMP180;6932;51.438;5.470;2023-10-08T03:07:13;101982.00;;;21.40
15079;BMP180;6932;51.438;5.470;2023-10-08T03:09:48;101990.00;;;21.40
15079;BMP180;6932;51.438;5.470;2023-10-08T03:12:16;101981.00;;;21.30
15079;BMP180;6932;51.438;5.470;2023-10-08T03:14:43;101985.00;;;21.30
15079;BMP180;6932;51.438;5.470;2023-10-08T03:17:30;101985.00;;;21.30
15079;BMP180;6932;51.438;5.470;2023-10-08T03:19:56;101977.00;;;21.30
15079;BMP180;6932;51.438;5.470;2023-10-08T03:22:27;101987.00;;;21.30
15079;BMP180;6932;51.438;5.470;2023-10-08T03:24:59;101990.00;;;21.30
15079;BMP180;6932;51.438;5.470;2023-10-08T03:27:41;102006.00;;;21.20
15079;BMP180;6932;51.438;5.470;2023-10-08T03:30:08;102009.00;;;21.20
15079;BMP180;6932;51.438;5.470;2023-10-08T03:32:43;102009.00;;;21.20
15079;BMP180;6932;51.438;5.470;2023-10-08T03:35:16;102008.00;;;21.20
15079;BMP180;6932;51.438;5.470;2023-10-08T03:37:48;102010.00;;;21.20
15079;BMP180;6932;51.438;5.470;2023-10-08T03:40:16;102011.00;;;21.20
15079;BMP180;6932;51.438;5.470;2023-10-08T03:42:57;102008.00;;;21.20
15079;BMP180;6932;51.438;5.470;2023-10-08T03:45:23;101998.00;;;21.20
15079;BMP180;6932;51.438;5.470;2023-10-08T03:48:07;102012.00;;;21.10
15079;BMP180;6932;51.438;5.470;2023-10-08T03:50:37;102017.00;;;21.10
15079;BMP180;6932;51.438;5.470;2023-10-08T03:53:09;102014.00;;;21.20
15079;BMP180;6932;51.438;5.470;2023-10-08T03:55:39;102012.00;;;21.10
15079;BMP180;6932;51.438;5.470;2023-10-08T03:58:09;102010.00;;;21.10
15079;BMP180;6932;51.438;5.470;2023-10-08T04:00:55;102008.00;;;21.10
15079;BMP180;6932;51.438;5.470;2023-10-08T04:03:44;102007.00;;;21.10
15079;BMP180;6932;51.438;5.470;2023-10-08T04:06:16;101999.00;;;21.10
15079;BMP180;6932;51.438;5.470;2023-10-08T04:08:41;102004.00;;;21.10
15079;BMP180;6932;51.438;5.470;2023-10-08T04:11:20;102001.00;;;21.00
15079;BMP180;6932;51.438;5.470;2023-10-08T04:14:04;101997.00;;;21.00
15079;BMP180;6932;51.438;5.470;2023-10-08T04:16:33;101991.00;;;21.00
15079;BMP180;6932;51.438;5.470;2023-10-08T04:19:05;102001.00;;;21.00
15079;BMP180;6932;51.438;5.470;2023-10-08T04:21:31;102013.00;;;21.00
15079;BMP180;6932;51.438;5.470;2023-10-08T04:24:00;101999.00;;;21.00
15079;BMP180;6932;51.438;5.470;2023-10-08T04:26:30;102001.00;;;21.00
15079;BMP180;6932;51.438;5.470;2023-10-08T04:28:59;101996.00;;;21.00
15079;BMP180;6932;51.438;5.470;2023-10-08T04:31:29;102004.00;;;21.00
15079;BMP180;6932;51.438;5.470;2023-10-08T04:34:05;102011.00;;;20.90
15079;BMP180;6932;51.438;5.470;2023-10-08T04:36:48;102025.00;;;20.90
15079;BMP180;6932;51.438;5.470;2023-10-08T04:39:20;102025.00;;;20.90
15079;BMP180;6932;51.438;5.470;2023-10-08T04:42:02;102025.00;;;20.90
15079;BMP180;6932;51.438;5.470;2023-10-08T04:44:38;102009.00;;;20.90
15079;BMP180;6932;51.438;5.470;2023-10-08T04:47:06;102018.00;;;21.00
15079;BMP180;6932;51.438;5.470;2023-10-08T04:49:33;102029.00;;;20.90
15079;BMP180;6932;51.438;5.470;2023-10-08T04:52:02;102022.00;;;20.90
15079;BMP180;6932;51.438;5.470;2023-10-08T04:54:42;102032.00;;;20.90
15079;BMP180;6932;51.438;5.470;2023-10-08T04:57:18;102027.00;;;20.90
15079;BMP180;6932;51.438;5.470;2023-10-08T04:59:48;102037.00;;;20.90
15079;BMP180;6932;51.438;5.470;2023-10-08T05:02:16;102043.00;;;20.90
15079;BMP180;6932;51.438;5.470;2023-10-08T05:04:49;102035.00;;;20.90
15079;BMP180;6932;51.438;5.470;2023-10-08T05:07:21;102046.00;;;20.90
15079;BMP180;6932;51.438;5.470;2023-10-08T05:09:50;102040.00;;;20.90
15079;BMP180;6932;51.438;5.470;2023-10-08T05:12:38;102037.00;;;20.80
15079;BMP180;6932;51.438;5.470;2023-10-08T05:15:12;102048.00;;;20.80
15079;BMP180;6932;51.438;5.470;2023-10-08T05:17:44;102044.00;;;20.80
15079;BMP180;6932;51.438;5.470;2023-10-08T05:20:21;102047.00;;;20.80
15079;BMP180;6932;51.438;5.470;2023-10-08T05:23:12;102050.00;;;20.80
15079;BMP180;6932;51.438;5.470;2023-10-08T05:25:52;102056.00;;;20.80
15079;BMP180;6932;51.438;5.470;2023-10-08T05:28:27;102064.00;;;20.80
15079;BMP180;6932;51.438;5.470;2023-10-08T05:30:55;102053.00;;;20.80
15079;BMP180;6932;51.438;5.470;2023-10-08T05:33:37;102057.00;;;20.80
15079;BMP180;6932;51.438;5.470;2023-10-08T05:36:26;102051.00;;;20.80
15079;BMP180;6932;51.438;5.470;2023-10-08T05:39:10;102062.00;;;20.80
15079;BMP180;6932;51.438;5.470;2023-10-08T05:41:56;102076.00;;;20.70
15079;BMP180;6932;51.438;5.470;2023-10-08T05:44:51;102072.00;;;20.70
15079;BMP180;6932;51.438;5.470;2023-10-08T05:47:52;102079.00;;;20.70
15079;BMP180;6932;51.438;5.470;2023-10-08T05:50:33;102103.00;;;20.70
15079;BMP180;6932;51.438;5.470;2023-10-08T05:53:08;102102.00;;;20.70
15079;BMP180;6932;51.438;5.470;2023-10-08T05:55:55;102091.00;;;20.70
15079;BMP180;6932;51.438;5.470;2023-10-08T05:58:41;102085.00;;;20.70
15079;BMP180;6932;51.438;5.470;2023-10-08T06:01:26;102068.00;;;20.70
15079;BMP180;6932;51.438;5.470;2023-10-08T06:04:05;102062.00;;;20.70
15079;BMP180;6932;51.438;5.470;2023-10-08T06:06:51;102046.00;;;20.60
15079;BMP180;6932;51.438;5.470;2023-10-08T06:09:36;102038.00;;;20.60
15079;BMP180;6932;51.438;5.470;2023-10-08T06:12:04;102042.00;;;20.70
15079;BMP180;6932;51.438;5.470;2023-10-08T06:14:38;102048.00;;;20.60
15079;BMP180;6932;51.438;5.470;2023-10-08T06:17:33;102043.00;;;20.60
15079;BMP180;6932;51.438;5.470;2023-10-08T06:20:35;102046.00;;;20.60
15079;BMP180;6932;51.438;5.470;2023-10-08T06:23:02;102049.00;;;20.60
15079;BMP180;6932;51.438;5.470;2023-10-08T06:25:33;102047.00;;;20.60
15079;BMP180;6932;51.438;5.470;2023-10-08T06:28:17;102051.00;;;20.60
15079;BMP180;6932;51.438;5.470;2023-10-08T06:30:47;102057.00;;;20.60
15079;BMP180;6932;51.438;5.470;2023-10-08T06:33:15;102050.00;;;20.60
15079;BMP180;6932;51.438;5.470;2023-10-08T06:35:42;102053.00;;;20.60
15079;BMP180;6932;51.438;5.470;2023-10-08T06:38:22;102075.00;;;20.60
15079;BMP180;6932;51.438;5.470;2023-10-08T06:40:49;102075.00;;;20.60
15079;BMP180;6932;51.438;5.470;2023-10-08T06:43:18;102070.00;;;20.60
15079;BMP180;6932;51.438;5.470;2023-10-08T06:45:48;102065.00;;;20.60
15079;BMP180;6932;51.438;5.470;2023-10-08T06:48:21;102072.00;;;20.60
15079;BMP180;6932;51.438;5.470;2023-10-08T06:50:49;102077.00;;;20.60
15079;BMP180;6932;51.438;5.470;2023-10-08T06:53:17;102070.00;;;20.60
15079;BMP180;6932;51.438;5.470;2023-10-08T06:55:47;102070.00;;;20.60
15079;BMP180;6932;51.438;5.470;2023-10-08T06:58:33;102068.00;;;20.60
15079;BMP180;6932;51.438;5.470;2023-10-08T07:00:59;102080.00;;;20.70
15079;BMP180;6932;51.438;5.470;2023-10-08T07:03:30;102078.00;;;20.70
15079;BMP180;6932;51.438;5.470;2023-10-08T07:05:58;102076.00;;;20.70
15079;BMP180;6932;51.438;5.470;2023-10-08T07:08:31;102081.00;;;20.70
15079;BMP180;6932;51.438;5.470;2023-10-08T07:10:59;102086.00;;;20.80
15079;BMP180;6932;51.438;5.470;2023-10-08T07:13:27;102098.00;;;20.90
15079;BMP180;6932;51.438;5.470;2023-10-08T07:15:55;102090.00;;;21.00
15079;BMP180;6932;51.438;5.470;2023-10-08T07:18:22;102088.00;;;21.20
15079;BMP180;6932;51.438;5.470;2023-10-08T07:20:52;102089.00;;;21.40
15079;BMP180;6932;51.438;5.470;2023-10-08T07:23:28;102093.00;;;21.50
15079;BMP180;6932;51.438;5.470;2023-10-08T07:26:03;102093.00;;;21.70
15079;BMP180;6932;51.438;5.470;2023-10-08T07:28:44;102087.00;;;21.90
15079;BMP180;6932;51.438;5.470;2023-10-08T07:31:15;102095.00;;;22.10
15079;BMP180;6932;51.438;5.470;2023-10-08T07:33:56;102104.00;;;22.30
15079;BMP180;6932;51.438;5.470;2023-10-08T07:36:26;102114.00;;;22.50
15079;BMP180;6932;51.438;5.470;2023-10-08T07:38:53;102113.00;;;22.70
15079;BMP180;6932;51.438;5.470;2023-10-08T07:41:20;102110.00;;;22.80
15079;BMP180;6932;51.438;5.470;2023-10-08T07:43:47;102114.00;;;23.00
15079;BMP180;6932;51.438;5.470;2023-10-08T07:46:22;102119.00;;;23.10
15079;BMP180;6932;51.438;5.470;2023-10-08T07:48:47;102120.00;;;23.30
15079;BMP180;6932;51.438;5.470;2023-10-08T07:51:17;102111.00;;;23.40
15079;BMP180;6932;51.438;5.470;2023-10-08T07:53:48;102102.00;;;23.50
15079;BMP180;6932;51.438;5.470;2023-10-08T07:56:14;102112.00;;;23.60
15079;BMP180;6932;51.438;5.470;2023-10-08T07:58:40;102110.00;;;23.80
15079;BMP180;6932;51.438;5.470;2023-10-08T08:01:09;102103.00;;;23.90
15079;BMP180;6932;51.438;5.470;2023-10-08T08:03:36;102089.00;;;24.10
15079;BMP180;6932;51.438;5.470;2023-10-08T08:06:06;102099.00;;;24.20
15079;BMP180;6932;51.438;5.470;2023-10-08T08:08:38;102102.00;;;24.20
15079;BMP180;6932;51.438;5.470;2023-10-08T08:11:05;102108.00;;;24.20
15079;BMP180;6932;51.438;5.470;2023-10-08T08:13:39;102108.00;;;24.10
15079;BMP180;6932;51.438;5.470;2023-10-08T08:16:09;102126.00;;;24.00
15079;BMP180;6932;51.438;5.470;2023-10-08T08:18:52;102132.00;;;23.90
15079;BMP180;6932;51.438;5.470;2023-10-08T08:21:20;102146.00;;;23.80
15079;BMP180;6932;51.438;5.470;2023-10-08T08:23:49;102147.00;;;23.60
15079;BMP180;6932;51.438;5.470;2023-10-08T08:26:23;102153.00;;;23.50
15079;BMP180;6932;51.438;5.470;2023-10-08T08:29:02;102149.00;;;23.30
15079;BMP180;6932;51.438;5.470;2023-10-08T08:31:29;102155.00;;;23.30
15079;BMP180;6932;51.438;5.470;2023-10-08T08:34:02;102163.00;;;23.20
15079;BMP180;6932;51.438;5.470;2023-10-08T08:36:34;102180.00;;;23.20
15079;BMP180;6932;51.438;5.470;2023-10-08T08:39:03;102180.00;;;23.10
15079;BMP180;6932;51.438;5.470;2023-10-08T08:41:30;102191.00;;;23.10
15079;BMP180;6932;51.438;5.470;2023-10-08T08:43:56;102201.00;;;23.10
15079;BMP180;6932;51.438;5.470;2023-10-08T08:46:33;102197.00;;;23.00
15079;BMP180;6932;51.438;5.470;2023-10-08T08:49:05;102198.00;;;23.00
15079;BMP180;6932;51.438;5.470;2023-10-08T08:51:34;102207.00;;;23.00
15079;BMP180;6932;51.438;5.470;2023-10-08T08:54:05;102200.00;;;23.00
15079;BMP180;6932;51.438;5.470;2023-10-08T08:56:37;102204.00;;;23.00
15079;BMP180;6932;51.438;5.470;2023-10-08T08:59:04;102204.00;;;23.00
15079;BMP180;6932;51.438;5.470;2023-10-08T09:01:31;102199.00;;;23.00
15079;BMP180;6932;51.438;5.470;2023-10-08T09:04:02;102195.00;;;23.00
15079;BMP180;6932;51.438;5.470;2023-10-08T09:06:34;102203.00;;;23.00
15079;BMP180;6932;51.438;5.470;2023-10-08T09:09:04;102201.00;;;23.00
15079;BMP180;6932;51.438;5.470;2023-10-08T09:11:52;102214.00;;;22.90
15079;BMP180;6932;51.438;5.470;2023-10-08T09:14:22;102205.00;;;22.90
15079;BMP180;6932;51.438;5.470;2023-10-08T09:16:52;102205.00;;;22.90
15079;BMP180;6932;51.438;5.470;2023-10-08T09:19:20;102211.00;;;22.90
15079;BMP180;6932;51.438;5.470;2023-10-08T09:22:08;102211.00;;;22.80
15079;BMP180;6932;51.438;5.470;2023-10-08T09:24:37;102207.00;;;22.80
15079;BMP180;6932;51.438;5.470;2023-10-08T09:27:05;102220.00;;;22.80
15079;BMP180;6932;51.438;5.470;2023-10-08T09:29:33;102213.00;;;22.80
15079;BMP180;6932;51.438;5.470;2023-10-08T09:32:06;102209.00;;;22.80
15079;BMP180;6932;51.438;5.470;2023-10-08T09:34:33;102208.00;;;22.90
15079;BMP180;6932;51.438;5.470;2023-10-08T09:37:00;102209.00;;;22.90
15079;BMP180;6932;51.438;5.470;2023-10-08T09:39:31;102209.00;;;22.90
15079;BMP180;6932;51.438;5.470;2023-10-08T09:42:03;102213.00;;;23.00
15079;BMP180;6932;51.438;5.470;2023-10-08T09:44:32;102213.00;;;23.00
15079;BMP180;6932;51.438;5.470;2023-10-08T09:47:07;102211.00;;;23.10
15079;BMP180;6932;51.438;5.470;2023-10-08T09:49:38;102210.00;;;23.20
15079;BMP180;6932;51.438;5.470;2023-10-08T09:52:07;102211.00;;;23.30
15079;BMP180;6932;51.438;5.470;2023-10-08T09:55:08;102200.00;;;23.30
15079;BMP180;6932;51.438;5.470;2023-10-08T09:57:37;102198.00;;;23.50
15079;BMP180;6932;51.438;5.470;2023-10-08T10:00:06;102199.00;;;23.60
15079;BMP180;6932;51.438;5.470;2023-10-08T10:02:43;102196.00;;;23.60
15079;BMP180;6932;51.438;5.470;2023-10-08T10:05:13;102202.00;;;23.60
15079;BMP180;6932;51.438;5.470;2023-10-08T10:07:44;102197.00;;;23.70
15079;BMP180;6932;51.438;5.470;2023-10-08T10:10:31;102202.00;;;23.70
15079;BMP180;6932;51.438;5.470;2023-10-08T10:13:04;102187.00;;;23.90
15079;BMP180;6932;51.438;5.470;2023-10-08T10:15:34;102178.00;;;23.90
15079;BMP180;6932;51.438;5.470;2023-10-08T10:18:16;102178.00;;;23.90
15079;BMP180;6932;51.438;5.470;2023-10-08T10:21:00;102173.00;;;24.00
15079;BMP180;6932;51.438;5.470;2023-10-08T10:23:47;102176.00;;;23.90
15079;BMP180;6932;51.438;5.470;2023-10-08T10:31:35;102179.00;;;24.10
15079;BMP180;6932;51.438;5.470;2023-10-08T10:34:08;102176.00;;;24.20
15079;BMP180;6932;51.438;5.470;2023-10-08T10:36:39;102174.00;;;24.30
15079;BMP180;6932;51.438;5.470;2023-10-08T10:39:12;102188.00;;;24.20
15079;BMP180;6932;51.438;5.470;2023-10-08T10:41:59;102174.00;;;24.20
15079;BMP180;6932;51.438;5.470;2023-10-08T10:44:30;102173.00;;;24.10
15079;BMP180;6932;51.438;5.470;2023-10-08T10:46:59;102183.00;;;24.10
15079;BMP180;6932;51.438;5.470;2023-10-08T10:49:47;102189.00;;;24.10
15079;BMP180;6932;51.438;5.470;2023-10-08T10:52:27;102185.00;;;23.90
15079;BMP180;6932;51.438;5.470;2023-10-08T10:55:20;102185.00;;;23.90
15079;BMP180;6932;51.438;5.470;2023-10-08T10:57:57;102190.00;;;23.90
15079;BMP180;6932;51.438;5.470;2023-10-08T11:00:31;102183.00;;;23.80
15079;BMP180;6932;51.438;5.470;2023-10-08T11:03:02;102183.00;;;23.80
15079;BMP180;6932;51.438;5.470;2023-10-08T11:05:33;102180.00;;;23.80
15079;BMP180;6932;51.438;5.470;2023-10-08T11:08:06;102183.00;;;23.80
15079;BMP180;6932;51.438;5.470;2023-10-08T11:10:42;102187.00;;;23.70
15079;BMP180;6932;51.438;5.470;2023-10-08T11:13:21;102177.00;;;23.80
15079;BMP180;6932;51.438;5.470;2023-10-08T11:15:54;102177.00;;;23.80
15079;BMP180;6932;51.438;5.470;2023-10-08T11:18:25;102187.00;;;23.80
15079;BMP180;6932;51.438;5.470;2023-10-08T11:21:05;102176.00;;;23.80
15079;BMP180;6932;51.438;5.470;2023-10-08T11:23:47;102184.00;;;23.80
15079;BMP180;6932;51.438;5.470;2023-10-08T11:26:19;102184.00;;;23.80
15079;BMP180;6932;51.438;5.470;2023-10-08T11:28:46;102185.00;;;23.80
15079;BMP180;6932;51.438;5.470;2023-10-08T11:31:17;102191.00;;;23.80
15079;BMP180;6932;51.438;5.470;2023-10-08T11:33:47;102183.00;;;23.70
15079;BMP180;6932;51.438;5.470;2023-10-08T11:36:20;102193.00;;;23.60
15079;BMP180;6932;51.438;5.470;2023-10-08T11:39:10;102191.00;;;23.50
15079;BMP180;6932;51.438;5.470;2023-10-08T11:41:39;102178.00;;;23.50
15079;BMP180;6932;51.438;5.470;2023-10-08T11:44:16;102184.00;;;23.40
15079;BMP180;6932;51.438;5.470;2023-10-08T11:46:45;102182.00;;;23.40
15079;BMP180;6932;51.438;5.470;2023-10-08T11:49:17;102175.00;;;23.40
15079;BMP180;6932;51.438;5.470;2023-10-08T11:51:45;102178.00;;;23.40
15079;BMP180;6932;51.438;5.470;2023-10-08T11:54:11;102184.00;;;23.30
15079;BMP180;6932;51.438;5.470;2023-10-08T11:56:38;102177.00;;;23.30
15079;BMP180;6932;51.438;5.470;2023-10-08T11:59:05;102180.00;;;23.30
15079;BMP180;6932;51.438;5.470;2023-10-08T12:01:38;102163.00;;;23.20
15079;BMP180;6932;51.438;5.470;2023-10-08T12:04:09;102163.00;;;23.20
15079;BMP180;6932;51.438;5.470;2023-10-08T12:06:41;102161.00;;;23.20
15079;BMP180;6932;51.438;5.470;2023-10-08T12:09:14;102156.00;;;23.10
15079;BMP180;6932;51.438;5.470;2023-10-08T12:11:40;102149.00;;;23.10
15079;BMP180;6932;51.438;5.470;2023-10-08T12:14:06;102154.00;;;23.10
15079;BMP180;6932;51.438;5.470;2023-10-08T12:16:32;102152.00;;;23.00
15079;BMP180;6932;51.438;5.470;2023-10-08T12:19:02;102147.00;;;23.00
15079;BMP180;6932;51.438;5.470;2023-10-08T12:21:38;102145.00;;;23.00
15079;BMP180;6932;51.438;5.470;2023-10-08T12:24:05;102136.00;;;23.00
15079;BMP180;6932;51.438;5.470;2023-10-08T12:26:31;102145.00;;;23.10
15079;BMP180;6932;51.438;5.470;2023-10-08T12:28:57;102139.00;;;23.10
15079;BMP180;6932;51.438;5.470;2023-10-08T12:31:23;102141.00;;;23.10
15079;BMP180;6932;51.438;5.470;2023-10-08T12:33:53;102140.00;;;23.10
15079;BMP180;6932;51.438;5.470;2023-10-08T12:36:26;102127.00;;;23.10
15079;BMP180;6932;51.438;5.470;2023-10-08T12:38:53;102137.00;;;23.10
15079;BMP180;6932;51.438;5.470;2023-10-08T12:41:26;102126.00;;;23.10
15079;BMP180;6932;51.438;5.470;2023-10-08T12:43:57;102131.00;;;23.10
15079;BMP180;6932;51.438;5.470;2023-10-08T12:46:23;102142.00;;;23.00
15079;BMP180;6932;51.438;5.470;2023-10-08T12:48:51;102139.00;;;23.00
15079;BMP180;6932;51.438;5.470;2023-10-08T12:51:21;102134.00;;;23.00
15079;BMP180;6932;51.438;5.470;2023-10-08T12:53:51;102138.00;;;22.90
15079;BMP180;6932;51.438;5.470;2023-10-08T12:56:26;102142.00;;;22.90
15079;BMP180;6932;51.438;5.470;2023-10-08T12:59:01;102125.00;;;23.00
15079;BMP180;6932;51.438;5.470;2023-10-08T13:01:30;102128.00;;;23.00
15079;BMP180;6932;51.438;5.470;2023-10-08T13:03:56;102121.00;;;23.10
15079;BMP180;6932;51.438;5.470;2023-10-08T13:06:27;102120.00;;;23.20
15079;BMP180;6932;51.438;5.470;2023-10-08T13:08:58;102116.00;;;23.30
15079;BMP180;6932;51.438;5.470;2023-10-08T13:11:27;102103.00;;;23.30
15079;BMP180;6932;51.438;5.470;2023-10-08T13:13:57;102106.00;;;23.30
15079;BMP180;6932;51.438;5.470;2023-10-08T13:16:25;102103.00;;;23.40
15079;BMP180;6932;51.438;5.470;2023-10-08T13:18:52;102094.00;;;23.50
15079;BMP180;6932;51.438;5.470;2023-10-08T13:21:18;102087.00;;;23.50
15079;BMP180;6932;51.438;5.470;2023-10-08T13:23:54;102092.00;;;23.60
15079;BMP180;6932;51.438;5.470;2023-10-08T13:26:23;102087.00;;;23.60
15079;BMP180;6932;51.438;5.470;2023-10-08T13:28:50;102081.00;;;23.70
15079;BMP180;6932;51.438;5.470;2023-10-08T13:31:16;102082.00;;;23.80
15079;BMP180;6932;51.438;5.470;2023-10-08T13:33:44;102069.00;;;23.90
15079;BMP180;6932;51.438;5.470;2023-10-08T13:36:15;102068.00;;;23.90
15079;BMP180;6932;51.438;5.470;2023-10-08T13:38:41;102063.00;;;23.90
15079;BMP180;6932;51.438;5.470;2023-10-08T13:41:08;102069.00;;;24.00
15079;BMP180;6932;51.438;5.470;2023-10-08T13:43:49;102066.00;;;24.10
15079;BMP180;6932;51.438;5.470;2023-10-08T13:46:19;102072.00;;;24.10
15079;BMP180;6932;51.438;5.470;2023-10-08T13:48:49;102060.00;;;24.20
15079;BMP180;6932;51.438;5.470;2023-10-08T13:51:17;102055.00;;;24.20
15079;BMP180;6932;51.438;5.470;2023-10-08T13:53:58;102067.00;;;24.20
15079;BMP180;6932;51.438;5.470;2023-10-08T13:56:29;102048.00;;;24.20
15079;BMP180;6932;51.438;5.470;2023-10-08T13:58:59;102040.00;;;24.20
15079;BMP180;6932;51.438;5.470;2023-10-08T14:01:45;102042.00;;;24.30
15079;BMP180;6932;51.438;5.470;2023-10-08T14:04:12;102035.00;;;24.30
15079;BMP180;6932;51.438;5.470;2023-10-08T14:06:42;102033.00;;;24.30
15079;BMP180;6932;51.438;5.470;2023-10-08T14:09:14;102035.00;;;24.30
15079;BMP180;6932;51.438;5.470;2023-10-08T14:11:50;102025.00;;;24.30
15079;BMP180;6932;51.438;5.470;2023-10-08T14:14:21;102025.00;;;24.30
15079;BMP180;6932;51.438;5.470;2023-10-08T14:16:50;102022.00;;;24.30
15079;BMP180;6932;51.438;5.470;2023-10-08T14:19:19;102013.00;;;24.40
15079;BMP180;6932;51.438;5.470;2023-10-08T14:21:53;102023.00;;;24.40
15079;BMP180;6932;51.438;5.470;2023-10-08T14:24:26;102020.00;;;24.40
15079;BMP180;6932;51.438;5.470;2023-10-08T14:26:55;102028.00;;;24.40
15079;BMP180;6932;51.438;5.470;2023-10-08T14:29:22;102026.00;;;24.40
15079;BMP180;6932;51.438;5.470;2023-10-08T14:31:52;102018.00;;;24.40
15079;BMP180;6932;51.438;5.470;2023-10-08T14:34:22;102024.00;;;24.40
15079;BMP180;6932;51.438;5.470;2023-10-08T14:37:08;102019.00;;;24.30
15079;BMP180;6932;51.438;5.470;2023-10-08T14:39:52;102016.00;;;24.30
15079;BMP180;6932;51.438;5.470;2023-10-08T14:42:36;102019.00;;;24.30
15079;BMP180;6932;51.438;5.470;2023-10-08T14:45:24;102015.00;;;24.30